Moodus, Connecticut
Current Conditions -  °F | °C
As of 7:55 PM on Monday 26 Jan 2015 (Local Time) from KSNC Reporting Station
Light Snow Light Snow  
Wind Chill: 14°   Ceiling: 100
Heat Index: 25°   Visibility: 1mi
Dew Point: 23°   Wind: 12mph
Humidity: 93%   Direction: 40°NE
Pressure: 29.84"   Gusts: 22mph
Location:  41.5°N, 72.45°W
Report Text: KSNC 270055Z AUTO 04010G19KT 1SM -SN OVC001 M04/M05 A2984 RMK AO2 P0086
Loading
Personal Weather Stations






























Interactive Weather Map New forecast layout! Learn more

10-Day Weather Forecast

Advertisements
Track Severe Weather on mobile